sensor_id;sensor_type;location;lat;lon;timestamp;temperature;humidity
6379;DHT22;3222;48.858;10.128;2022-10-17T00:01:11;17.70;99.90
6379;DHT22;3222;48.858;10.128;2022-10-17T00:03:38;17.60;99.90
6379;DHT22;3222;48.858;10.128;2022-10-17T00:06:06;17.50;99.90
6379;DHT22;3222;48.858;10.128;2022-10-17T00:08:40;17.30;99.90
6379;DHT22;3222;48.858;10.128;2022-10-17T00:11:10;17.40;99.90
6379;DHT22;3222;48.858;10.128;2022-10-17T00:13:37;17.40;99.90
6379;DHT22;3222;48.858;10.128;2022-10-17T00:16:03;17.50;99.90
6379;DHT22;3222;48.858;10.128;2022-10-17T00:18:29;17.30;99.90
6379;DHT22;3222;48.858;10.128;2022-10-17T00:20:55;17.40;99.90
6379;DHT22;3222;48.858;10.128;2022-10-17T00:23:20;17.50;99.90
6379;DHT22;3222;48.858;10.128;2022-10-17T00:25:46;17.50;99.90
6379;DHT22;3222;48.858;10.128;2022-10-17T00:28:13;17.50;99.90
6379;DHT22;3222;48.858;10.128;2022-10-17T00:30:39;17.60;99.90
6379;DHT22;3222;48.858;10.128;2022-10-17T00:33:05;17.50;99.90
6379;DHT22;3222;48.858;10.128;2022-10-17T00:35:31;17.60;99.90
6379;DHT22;3222;48.858;10.128;2022-10-17T00:37:57;17.60;99.90
6379;DHT22;3222;48.858;10.128;2022-10-17T00:40:24;17.50;99.90
6379;DHT22;3222;48.858;10.128;2022-10-17T00:42:49;17.40;99.90
6379;DHT22;3222;48.858;10.128;2022-10-17T00:45:28;17.50;99.90
6379;DHT22;3222;48.858;10.128;2022-10-17T00:48:04;17.50;99.90
6379;DHT22;3222;48.858;10.128;2022-10-17T00:50:31;17.20;99.90
6379;DHT22;3222;48.858;10.128;2022-10-17T00:53:00;17.10;99.90
6379;DHT22;3222;48.858;10.128;2022-10-17T00:55:30;17.20;99.90
6379;DHT22;3222;48.858;10.128;2022-10-17T00:58:00;17.20;99.90
6379;DHT22;3222;48.858;10.128;2022-10-17T01:00:27;17.10;99.90
6379;DHT22;3222;48.858;10.128;2022-10-17T01:02:52;17.00;99.90
6379;DHT22;3222;48.858;10.128;2022-10-17T01:05:18;17.00;99.90
6379;DHT22;3222;48.858;10.128;2022-10-17T01:07:45;17.10;99.90
6379;DHT22;3222;48.858;10.128;2022-10-17T01:10:12;17.00;99.90
6379;DHT22;3222;48.858;10.128;2022-10-17T01:12:53;17.10;99.90
6379;DHT22;3222;48.858;10.128;2022-10-17T01:37:50;17.00;99.90
6379;DHT22;3222;48.858;10.128;2022-10-17T01:40:28;16.80;99.90
6379;DHT22;3222;48.858;10.128;2022-10-17T01:49:00;16.80;99.90
6379;DHT22;3222;48.858;10.128;2022-10-17T01:51:40;16.80;99.90
6379;DHT22;3222;48.858;10.128;2022-10-17T01:54:41;16.90;99.90
6379;DHT22;3222;48.858;10.128;2022-10-17T01:57:14;17.00;99.90
6379;DHT22;3222;48.858;10.128;2022-10-17T01:59:45;16.80;99.90
6379;DHT22;3222;48.858;10.128;2022-10-17T02:02:14;16.70;99.90
6379;DHT22;3222;48.858;10.128;2022-10-17T02:04:41;16.80;99.90
6379;DHT22;3222;48.858;10.128;2022-10-17T02:07:09;16.60;99.90
6379;DHT22;3222;48.858;10.128;2022-10-17T02:09:36;16.60;99.90
6379;DHT22;3222;48.858;10.128;2022-10-17T02:12:21;16.50;99.90
6379;DHT22;3222;48.858;10.128;2022-10-17T02:15:45;16.50;99.90
6379;DHT22;3222;48.858;10.128;2022-10-17T02:21:23;16.50;99.90
6379;DHT22;3222;48.858;10.128;2022-10-17T02:26:53;16.40;99.90
6379;DHT22;3222;48.858;10.128;2022-10-17T02:29:35;16.40;99.90
6379;DHT22;3222;48.858;10.128;2022-10-17T02:32:08;16.40;99.90
6379;DHT22;3222;48.858;10.128;2022-10-17T02:34:42;16.30;99.90
6379;DHT22;3222;48.858;10.128;2022-10-17T02:37:12;16.30;99.90
6379;DHT22;3222;48.858;10.128;2022-10-17T02:39:39;16.30;99.90
6379;DHT22;3222;48.858;10.128;2022-10-17T02:42:09;16.30;99.90
6379;DHT22;3222;48.858;10.128;2022-10-17T02:44:37;16.30;99.90
6379;DHT22;3222;48.858;10.128;2022-10-17T02:49:39;16.40;99.90
6379;DHT22;3222;48.858;10.128;2022-10-17T02:52:18;16.40;99.90
6379;DHT22;3222;48.858;10.128;2022-10-17T02:54:52;16.40;99.90
6379;DHT22;3222;48.858;10.128;2022-10-17T02:57:41;16.30;99.90
6379;DHT22;3222;48.858;10.128;2022-10-17T03:00:10;16.20;99.90
6379;DHT22;3222;48.858;10.128;2022-10-17T03:02:43;16.20;99.90
6379;DHT22;3222;48.858;10.128;2022-10-17T03:05:11;16.10;99.90
6379;DHT22;3222;48.858;10.128;2022-10-17T03:07:37;16.10;99.90
6379;DHT22;3222;48.858;10.128;2022-10-17T03:10:04;16.10;99.90
6379;DHT22;3222;48.858;10.128;2022-10-17T03:12:30;16.10;99.90
6379;DHT22;3222;48.858;10.128;2022-10-17T03:14:56;16.00;99.90
6379;DHT22;3222;48.858;10.128;2022-10-17T03:17:22;16.00;99.90
6379;DHT22;3222;48.858;10.128;2022-10-17T03:19:48;16.10;99.90
6379;DHT22;3222;48.858;10.128;2022-10-17T03:22:13;16.10;99.90
6379;DHT22;3222;48.858;10.128;2022-10-17T03:24:41;16.00;99.90
6379;DHT22;3222;48.858;10.128;2022-10-17T03:27:07;16.00;99.90
6379;DHT22;3222;48.858;10.128;2022-10-17T03:29:33;15.90;99.90
6379;DHT22;3222;48.858;10.128;2022-10-17T03:31:59;15.90;99.90
6379;DHT22;3222;48.858;10.128;2022-10-17T03:34:25;15.90;99.90
6379;DHT22;3222;48.858;10.128;2022-10-17T03:36:51;15.90;99.90
6379;DHT22;3222;48.858;10.128;2022-10-17T03:39:17;15.90;99.90
6379;DHT22;3222;48.858;10.128;2022-10-17T03:41:43;15.90;99.90
6379;DHT22;3222;48.858;10.128;2022-10-17T03:44:08;15.80;99.90
6379;DHT22;3222;48.858;10.128;2022-10-17T03:46:34;15.80;99.90
6379;DHT22;3222;48.858;10.128;2022-10-17T03:49:00;15.80;99.90
6379;DHT22;3222;48.858;10.128;2022-10-17T03:51:26;15.80;99.90
6379;DHT22;3222;48.858;10.128;2022-10-17T03:53:58;15.70;99.90
6379;DHT22;3222;48.858;10.128;2022-10-17T03:56:24;15.70;99.90
6379;DHT22;3222;48.858;10.128;2022-10-17T03:58:58;15.70;99.90
6379;DHT22;3222;48.858;10.128;2022-10-17T04:01:25;15.80;99.90
6379;DHT22;3222;48.858;10.128;2022-10-17T04:03:53;15.70;99.90
6379;DHT22;3222;48.858;10.128;2022-10-17T04:06:19;15.70;99.90
6379;DHT22;3222;48.858;10.128;2022-10-17T04:08:45;15.70;99.90
6379;DHT22;3222;48.858;10.128;2022-10-17T04:11:18;15.70;99.90
6379;DHT22;3222;48.858;10.128;2022-10-17T04:13:45;15.60;99.90
6379;DHT22;3222;48.858;10.128;2022-10-17T04:16:14;15.70;99.90
6379;DHT22;3222;48.858;10.128;2022-10-17T04:18:54;15.70;99.90
6379;DHT22;3222;48.858;10.128;2022-10-17T04:21:23;15.60;99.90
6379;DHT22;3222;48.858;10.128;2022-10-17T04:23:54;15.60;99.90
6379;DHT22;3222;48.858;10.128;2022-10-17T04:26:31;15.60;99.90
6379;DHT22;3222;48.858;10.128;2022-10-17T04:28:57;15.60;99.90
6379;DHT22;3222;48.858;10.128;2022-10-17T04:31:22;15.60;99.90
6379;DHT22;3222;48.858;10.128;2022-10-17T04:34:02;15.60;99.90
6379;DHT22;3222;48.858;10.128;2022-10-17T04:36:28;15.50;99.90
6379;DHT22;3222;48.858;10.128;2022-10-17T04:38:54;15.50;99.90
6379;DHT22;3222;48.858;10.128;2022-10-17T04:41:20;15.50;99.90
6379;DHT22;3222;48.858;10.128;2022-10-17T04:43:45;15.60;99.90
6379;DHT22;3222;48.858;10.128;2022-10-17T04:46:13;15.60;99.90
6379;DHT22;3222;48.858;10.128;2022-10-17T04:48:40;15.60;99.90
6379;DHT22;3222;48.858;10.128;2022-10-17T04:51:12;15.60;99.90
6379;DHT22;3222;48.858;10.128;2022-10-17T04:53:50;15.60;99.90
6379;DHT22;3222;48.858;10.128;2022-10-17T04:56:18;15.50;99.90
6379;DHT22;3222;48.858;10.128;2022-10-17T04:58:45;15.60;99.90
6379;DHT22;3222;48.858;10.128;2022-10-17T05:01:17;15.60;99.90
6379;DHT22;3222;48.858;10.128;2022-10-17T05:03:48;15.60;99.90
6379;DHT22;3222;48.858;10.128;2022-10-17T05:06:16;15.60;99.90
6379;DHT22;3222;48.858;10.128;2022-10-17T05:08:47;15.50;99.90
6379;DHT22;3222;48.858;10.128;2022-10-17T05:11:22;15.50;99.90
6379;DHT22;3222;48.858;10.128;2022-10-17T05:13:52;15.50;99.90
6379;DHT22;3222;48.858;10.128;2022-10-17T05:16:19;15.50;99.90
6379;DHT22;3222;48.858;10.128;2022-10-17T05:18:47;15.50;99.90
6379;DHT22;3222;48.858;10.128;2022-10-17T05:21:15;15.50;99.90
6379;DHT22;3222;48.858;10.128;2022-10-17T05:23:40;15.40;99.90
6379;DHT22;3222;48.858;10.128;2022-10-17T05:26:06;15.40;99.90
6379;DHT22;3222;48.858;10.128;2022-10-17T05:28:33;15.40;99.90
6379;DHT22;3222;48.858;10.128;2022-10-17T05:31:03;15.40;99.90
6379;DHT22;3222;48.858;10.128;2022-10-17T05:33:29;15.40;99.90
6379;DHT22;3222;48.858;10.128;2022-10-17T05:35:55;15.40;99.90
6379;DHT22;3222;48.858;10.128;2022-10-17T05:38:21;15.40;99.90
6379;DHT22;3222;48.858;10.128;2022-10-17T05:40:48;15.40;99.90
6379;DHT22;3222;48.858;10.128;2022-10-17T05:43:14;15.30;99.90
6379;DHT22;3222;48.858;10.128;2022-10-17T05:45:40;15.30;99.90
6379;DHT22;3222;48.858;10.128;2022-10-17T05:48:11;15.30;99.90
6379;DHT22;3222;48.858;10.128;2022-10-17T05:50:36;15.20;99.90
6379;DHT22;3222;48.858;10.128;2022-10-17T05:53:07;15.20;99.90
6379;DHT22;3222;48.858;10.128;2022-10-17T05:55:39;15.20;99.90
6379;DHT22;3222;48.858;10.128;2022-10-17T05:58:05;15.20;99.90
6379;DHT22;3222;48.858;10.128;2022-10-17T06:00:35;15.20;99.90
6379;DHT22;3222;48.858;10.128;2022-10-17T06:03:01;15.20;99.90
6379;DHT22;3222;48.858;10.128;2022-10-17T06:05:27;15.20;99.90
6379;DHT22;3222;48.858;10.128;2022-10-17T06:07:53;15.10;99.90
6379;DHT22;3222;48.858;10.128;2022-10-17T06:10:20;15.10;99.90
6379;DHT22;3222;48.858;10.128;2022-10-17T06:12:46;15.10;99.90
6379;DHT22;3222;48.858;10.128;2022-10-17T06:15:13;15.10;99.90
6379;DHT22;3222;48.858;10.128;2022-10-17T06:17:42;15.10;99.90
6379;DHT22;3222;48.858;10.128;2022-10-17T06:20:08;15.20;99.90
6379;DHT22;3222;48.858;10.128;2022-10-17T06:22:34;15.20;99.90
6379;DHT22;3222;48.858;10.128;2022-10-17T06:25:03;15.30;99.90
6379;DHT22;3222;48.858;10.128;2022-10-17T06:27:29;15.20;99.90
6379;DHT22;3222;48.858;10.128;2022-10-17T06:29:55;15.10;99.90
6379;DHT22;3222;48.858;10.128;2022-10-17T06:32:21;15.10;99.90
6379;DHT22;3222;48.858;10.128;2022-10-17T06:34:47;15.10;99.90
6379;DHT22;3222;48.858;10.128;2022-10-17T06:37:13;15.10;99.90
6379;DHT22;3222;48.858;10.128;2022-10-17T06:39:40;15.10;99.90
6379;DHT22;3222;48.858;10.128;2022-10-17T06:42:11;15.10;99.90
6379;DHT22;3222;48.858;10.128;2022-10-17T06:44:56;15.10;99.90
6379;DHT22;3222;48.858;10.128;2022-10-17T06:47:38;15.10;99.90
6379;DHT22;3222;48.858;10.128;2022-10-17T06:50:17;15.20;99.90
6379;DHT22;3222;48.858;10.128;2022-10-17T06:52:52;15.30;99.90
6379;DHT22;3222;48.858;10.128;2022-10-17T06:55:53;15.30;99.90
6379;DHT22;3222;48.858;10.128;2022-10-17T06:58:36;15.30;99.90
6379;DHT22;3222;48.858;10.128;2022-10-17T07:01:13;15.30;99.90
6379;DHT22;3222;48.858;10.128;2022-10-17T07:03:40;15.40;99.90
6379;DHT22;3222;48.858;10.128;2022-10-17T07:06:06;15.50;99.90
6379;DHT22;3222;48.858;10.128;2022-10-17T07:08:32;15.50;99.90
6379;DHT22;3222;48.858;10.128;2022-10-17T07:11:11;15.50;99.90
6379;DHT22;3222;48.858;10.128;2022-10-17T07:13:37;15.50;99.90
6379;DHT22;3222;48.858;10.128;2022-10-17T07:16:03;15.50;99.90
6379;DHT22;3222;48.858;10.128;2022-10-17T07:18:30;15.50;99.90
6379;DHT22;3222;48.858;10.128;2022-10-17T07:20:56;15.50;99.90
6379;DHT22;3222;48.858;10.128;2022-10-17T07:23:22;15.60;99.90
6379;DHT22;3222;48.858;10.128;2022-10-17T07:25:48;15.60;99.90
6379;DHT22;3222;48.858;10.128;2022-10-17T07:28:16;15.80;99.90
6379;DHT22;3222;48.858;10.128;2022-10-17T07:30:42;15.80;99.90
6379;DHT22;3222;48.858;10.128;2022-10-17T07:33:10;15.90;99.90
6379;DHT22;3222;48.858;10.128;2022-10-17T07:35:38;16.00;99.90
6379;DHT22;3222;48.858;10.128;2022-10-17T07:38:07;16.20;99.90
6379;DHT22;3222;48.858;10.128;2022-10-17T07:40:33;16.20;99.90
6379;DHT22;3222;48.858;10.128;2022-10-17T07:42:59;16.30;99.90
6379;DHT22;3222;48.858;10.128;2022-10-17T07:45:25;16.30;99.90
6379;DHT22;3222;48.858;10.128;2022-10-17T07:47:56;16.30;99.90
6379;DHT22;3222;48.858;10.128;2022-10-17T07:50:22;16.30;99.90
6379;DHT22;3222;48.858;10.128;2022-10-17T07:52:48;16.30;99.90
6379;DHT22;3222;48.858;10.128;2022-10-17T07:55:14;16.40;99.90
6379;DHT22;3222;48.858;10.128;2022-10-17T07:57:40;16.50;99.90
6379;DHT22;3222;48.858;10.128;2022-10-17T08:00:07;16.70;99.90
6379;DHT22;3222;48.858;10.128;2022-10-17T08:02:38;16.80;99.90
6379;DHT22;3222;48.858;10.128;2022-10-17T08:05:04;16.80;99.90
6379;DHT22;3222;48.858;10.128;2022-10-17T08:07:30;16.90;99.90
6379;DHT22;3222;48.858;10.128;2022-10-17T08:09:55;17.00;99.90
6379;DHT22;3222;48.858;10.128;2022-10-17T08:12:21;16.90;99.90
6379;DHT22;3222;48.858;10.128;2022-10-17T08:14:48;16.90;99.90
6379;DHT22;3222;48.858;10.128;2022-10-17T08:17:14;17.00;99.90
6379;DHT22;3222;48.858;10.128;2022-10-17T08:19:39;17.10;99.90
6379;DHT22;3222;48.858;10.128;2022-10-17T08:22:06;17.40;99.90
6379;DHT22;3222;48.858;10.128;2022-10-17T08:24:32;17.40;99.90
6379;DHT22;3222;48.858;10.128;2022-10-17T08:26:57;17.60;99.90
6379;DHT22;3222;48.858;10.128;2022-10-17T08:29:25;17.60;99.90
6379;DHT22;3222;48.858;10.128;2022-10-17T08:31:51;17.50;99.90
6379;DHT22;3222;48.858;10.128;2022-10-17T08:34:17;17.50;99.90
6379;DHT22;3222;48.858;10.128;2022-10-17T08:36:42;17.50;99.90
6379;DHT22;3222;48.858;10.128;2022-10-17T08:39:08;17.50;99.90
6379;DHT22;3222;48.858;10.128;2022-10-17T08:47:15;17.60;99.90
6379;DHT22;3222;48.858;10.128;2022-10-17T08:49:56;17.70;99.90
6379;DHT22;3222;48.858;10.128;2022-10-17T08:52:42;17.70;99.90
6379;DHT22;3222;48.858;10.128;2022-10-17T08:55:36;17.80;99.90
6379;DHT22;3222;48.858;10.128;2022-10-17T08:58:14;17.90;99.90
6379;DHT22;3222;48.858;10.128;2022-10-17T09:00:47;18.00;99.90
6379;DHT22;3222;48.858;10.128;2022-10-17T09:06:24;18.20;99.90
6379;DHT22;3222;48.858;10.128;2022-10-17T09:18:01;18.60;99.90
6379;DHT22;3222;48.858;10.128;2022-10-17T09:20:32;18.60;99.90
6379;DHT22;3222;48.858;10.128;2022-10-17T09:23:09;18.70;99.90
6379;DHT22;3222;48.858;10.128;2022-10-17T09:25:44;18.80;99.90
6379;DHT22;3222;48.858;10.128;2022-10-17T09:28:19;18.90;99.90
6379;DHT22;3222;48.858;10.128;2022-10-17T09:30:51;18.90;99.90
6379;DHT22;3222;48.858;10.128;2022-10-17T09:33:25;19.10;99.90
6379;DHT22;3222;48.858;10.128;2022-10-17T09:35:53;19.10;99.90
6379;DHT22;3222;48.858;10.128;2022-10-17T09:38:28;19.10;99.90
6379;DHT22;3222;48.858;10.128;2022-10-17T09:41:00;19.20;99.90
6379;DHT22;3222;48.858;10.128;2022-10-17T09:43:27;19.20;99.90
6379;DHT22;3222;48.858;10.128;2022-10-17T09:46:06;19.30;99.90
6379;DHT22;3222;48.858;10.128;2022-10-17T09:48:39;19.40;99.90
6379;DHT22;3222;48.858;10.128;2022-10-17T09:51:06;19.50;99.90
6379;DHT22;3222;48.858;10.128;2022-10-17T09:53:37;19.50;99.90
6379;DHT22;3222;48.858;10.128;2022-10-17T09:56:12;19.70;99.90
6379;DHT22;3222;48.858;10.128;2022-10-17T09:58:43;19.60;99.90
6379;DHT22;3222;48.858;10.128;2022-10-17T10:01:29;19.70;99.90
6379;DHT22;3222;48.858;10.128;2022-10-17T10:04:15;19.80;99.90
6379;DHT22;3222;48.858;10.128;2022-10-17T10:07:03;19.90;99.90
6379;DHT22;3222;48.858;10.128;2022-10-17T10:09:31;19.90;99.90
6379;DHT22;3222;48.858;10.128;2022-10-17T10:12:00;19.90;99.90
6379;DHT22;3222;48.858;10.128;2022-10-17T10:16:53;20.20;99.90
6379;DHT22;3222;48.858;10.128;2022-10-17T10:19:31;20.30;99.90
6379;DHT22;3222;48.858;10.128;2022-10-17T10:22:01;20.40;99.90
6379;DHT22;3222;48.858;10.128;2022-10-17T10:24:28;20.50;99.90
6379;DHT22;3222;48.858;10.128;2022-10-17T10:26:56;20.40;99.90
6379;DHT22;3222;48.858;10.128;2022-10-17T10:32:19;20.30;99.90
6379;DHT22;3222;48.858;10.128;2022-10-17T10:35:02;20.20;99.90
6379;DHT22;3222;48.858;10.128;2022-10-17T10:37:37;20.20;99.90
6379;DHT22;3222;48.858;10.128;2022-10-17T10:40:14;20.40;99.90
6379;DHT22;3222;48.858;10.128;2022-10-17T10:42:41;20.50;99.90
6379;DHT22;3222;48.858;10.128;2022-10-17T10:45:14;20.60;99.90
6379;DHT22;3222;48.858;10.128;2022-10-17T10:47:50;20.80;99.90
6379;DHT22;3222;48.858;10.128;2022-10-17T10:50:25;20.80;99.90
6379;DHT22;3222;48.858;10.128;2022-10-17T10:53:13;20.90;99.90
6379;DHT22;3222;48.858;10.128;2022-10-17T10:55:55;20.90;99.90
6379;DHT22;3222;48.858;10.128;2022-10-17T11:01:05;21.10;99.90
6379;DHT22;3222;48.858;10.128;2022-10-17T11:06:27;21.30;99.90
6379;DHT22;3222;48.858;10.128;2022-10-17T11:09:04;21.40;99.90
6379;DHT22;3222;48.858;10.128;2022-10-17T11:11:38;21.40;99.90
6379;DHT22;3222;48.858;10.128;2022-10-17T11:14:18;21.40;99.90
6379;DHT22;3222;48.858;10.128;2022-10-17T11:17:02;21.40;99.90
6379;DHT22;3222;48.858;10.128;2022-10-17T11:19:55;21.50;99.90
6379;DHT22;3222;48.858;10.128;2022-10-17T11:22:30;21.50;99.90
6379;DHT22;3222;48.858;10.128;2022-10-17T11:25:08;21.50;99.90
6379;DHT22;3222;48.858;10.128;2022-10-17T11:27:38;21.50;99.90
6379;DHT22;3222;48.858;10.128;2022-10-17T11:30:05;21.70;99.90
6379;DHT22;3222;48.858;10.128;2022-10-17T11:35:17;21.80;99.90
6379;DHT22;3222;48.858;10.128;2022-10-17T11:40:34;21.80;99.90
6379;DHT22;3222;48.858;10.128;2022-10-17T11:43:24;21.70;99.90
6379;DHT22;3222;48.858;10.128;2022-10-17T11:45:55;21.80;99.90
6379;DHT22;3222;48.858;10.128;2022-10-17T11:48:36;21.80;99.90
6379;DHT22;3222;48.858;10.128;2022-10-17T11:51:06;21.80;99.90
6379;DHT22;3222;48.858;10.128;2022-10-17T12:02:16;21.60;99.90
6379;DHT22;3222;48.858;10.128;2022-10-17T12:07:54;21.60;99.90
6379;DHT22;3222;48.858;10.128;2022-10-17T12:18:41;21.70;99.90
6379;DHT22;3222;48.858;10.128;2022-10-17T12:21:07;21.80;99.90
6379;DHT22;3222;48.858;10.128;2022-10-17T12:23:33;21.80;99.90
6379;DHT22;3222;48.858;10.128;2022-10-17T12:26:06;22.00;99.90
6379;DHT22;3222;48.858;10.128;2022-10-17T12:28:41;22.00;99.90
6379;DHT22;3222;48.858;10.128;2022-10-17T12:31:09;22.20;99.90
6379;DHT22;3222;48.858;10.128;2022-10-17T12:33:58;22.20;99.90
6379;DHT22;3222;48.858;10.128;2022-10-17T12:54:55;22.50;99.90
6379;DHT22;3222;48.858;10.128;2022-10-17T12:58:00;22.60;99.90
6379;DHT22;3222;48.858;10.128;2022-10-17T13:03:11;22.50;99.90
6379;DHT22;3222;48.858;10.128;2022-10-17T13:05:41;22.60;99.90
6379;DHT22;3222;48.858;10.128;2022-10-17T13:08:15;22.70;99.90
6379;DHT22;3222;48.858;10.128;2022-10-17T13:10:44;22.70;99.90
6379;DHT22;3222;48.858;10.128;2022-10-17T13:13:44;22.80;99.90
6379;DHT22;3222;48.858;10.128;2022-10-17T13:16:39;22.80;99.90
6379;DHT22;3222;48.858;10.128;2022-10-17T13:19:14;22.80;99.90
6379;DHT22;3222;48.858;10.128;2022-10-17T13:21:50;22.60;99.90
6379;DHT22;3222;48.858;10.128;2022-10-17T13:24:30;22.70;99.90
6379;DHT22;3222;48.858;10.128;2022-10-17T13:26:56;22.60;99.90
6379;DHT22;3222;48.858;10.128;2022-10-17T13:29:23;22.60;99.90
6379;DHT22;3222;48.858;10.128;2022-10-17T13:32:01;22.60;99.90
6379;DHT22;3222;48.858;10.128;2022-10-17T13:34:29;22.70;99.90
6379;DHT22;3222;48.858;10.128;2022-10-17T13:37:03;22.80;99.90
6379;DHT22;3222;48.858;10.128;2022-10-17T13:39:34;22.80;99.90
6379;DHT22;3222;48.858;10.128;2022-10-17T13:42:01;22.70;99.90
6379;DHT22;3222;48.858;10.128;2022-10-17T13:44:31;22.80;99.90
6379;DHT22;3222;48.858;10.128;2022-10-17T13:46:57;22.70;99.90
6379;DHT22;3222;48.858;10.128;2022-10-17T13:49:33;22.80;99.90
6379;DHT22;3222;48.858;10.128;2022-10-17T13:52:01;22.70;99.90
6379;DHT22;3222;48.858;10.128;2022-10-17T13:54:42;22.80;99.90
6379;DHT22;3222;48.858;10.128;2022-10-17T13:57:28;22.70;99.90
6379;DHT22;3222;48.858;10.128;2022-10-17T13:59:57;22.70;99.90
6379;DHT22;3222;48.858;10.128;2022-10-17T14:02:26;22.60;99.90
6379;DHT22;3222;48.858;10.128;2022-10-17T14:07:45;22.70;99.90
6379;DHT22;3222;48.858;10.128;2022-10-17T14:10:29;22.80;99.90
6379;DHT22;3222;48.858;10.128;2022-10-17T14:12:56;22.80;99.90
6379;DHT22;3222;48.858;10.128;2022-10-17T14:15:27;22.70;99.90
6379;DHT22;3222;48.858;10.128;2022-10-17T14:17:59;22.80;99.90
6379;DHT22;3222;48.858;10.128;2022-10-17T14:20:25;22.90;99.90
6379;DHT22;3222;48.858;10.128;2022-10-17T14:22:54;22.80;99.90
6379;DHT22;3222;48.858;10.128;2022-10-17T14:25:30;22.80;99.90
6379;DHT22;3222;48.858;10.128;2022-10-17T14:30:48;22.90;99.90
6379;DHT22;3222;48.858;10.128;2022-10-17T14:33:28;22.80;99.90
6379;DHT22;3222;48.858;10.128;2022-10-17T14:35:59;22.90;99.90
6379;DHT22;3222;48.858;10.128;2022-10-17T14:38:27;22.80;99.90
6379;DHT22;3222;48.858;10.128;2022-10-17T14:41:00;22.60;99.90
6379;DHT22;3222;48.858;10.128;2022-10-17T14:43:28;22.60;99.90
6379;DHT22;3222;48.858;10.128;2022-10-17T14:45:58;22.60;99.90
6379;DHT22;3222;48.858;10.128;2022-10-17T14:48:26;22.50;99.90
6379;DHT22;3222;48.858;10.128;2022-10-17T14:51:16;22.60;99.90
6379;DHT22;3222;48.858;10.128;2022-10-17T14:53:56;22.60;99.90
6379;DHT22;3222;48.858;10.128;2022-10-17T14:56:33;22.60;99.90
6379;DHT22;3222;48.858;10.128;2022-10-17T14:58:59;22.60;99.90
6379;DHT22;3222;48.858;10.128;2022-10-17T15:01:27;22.40;99.90
6379;DHT22;3222;48.858;10.128;2022-10-17T15:03:53;22.50;99.90
6379;DHT22;3222;48.858;10.128;2022-10-17T15:06:21;22.50;99.90
6379;DHT22;3222;48.858;10.128;2022-10-17T15:08:47;22.50;99.90
6379;DHT22;3222;48.858;10.128;2022-10-17T15:11:13;22.40;99.90
6379;DHT22;3222;48.858;10.128;2022-10-17T15:13:39;22.40;99.90
6379;DHT22;3222;48.858;10.128;2022-10-17T15:16:22;22.30;99.90
6379;DHT22;3222;48.858;10.128;2022-10-17T15:18:49;22.30;99.90
6379;DHT22;3222;48.858;10.128;2022-10-17T15:21:21;22.20;99.90
6379;DHT22;3222;48.858;10.128;2022-10-17T15:23:47;22.20;99.90
6379;DHT22;3222;48.858;10.128;2022-10-17T15:26:18;22.10;99.90
6379;DHT22;3222;48.858;10.128;2022-10-17T15:28:45;22.00;99.90
6379;DHT22;3222;48.858;10.128;2022-10-17T15:31:13;21.90;99.90
6379;DHT22;3222;48.858;10.128;2022-10-17T15:33:40;21.90;99.90
6379;DHT22;3222;48.858;10.128;2022-10-17T15:36:23;21.80;99.90
6379;DHT22;3222;48.858;10.128;2022-10-17T15:38:50;21.80;99.90
6379;DHT22;3222;48.858;10.128;2022-10-17T15:41:18;21.70;99.90
6379;DHT22;3222;48.858;10.128;2022-10-17T15:43:45;21.60;99.90
6379;DHT22;3222;48.858;10.128;2022-10-17T15:46:14;21.60;99.90
6379;DHT22;3222;48.858;10.128;2022-10-17T15:48:41;21.50;99.90
6379;DHT22;3222;48.858;10.128;2022-10-17T15:51:08;21.50;99.90
6379;DHT22;3222;48.858;10.128;2022-10-17T15:53:34;21.40;99.90
6379;DHT22;3222;48.858;10.128;2022-10-17T15:55:59;21.30;99.90
6379;DHT22;3222;48.858;10.128;2022-10-17T15:58:33;21.30;99.90
6379;DHT22;3222;48.858;10.128;2022-10-17T16:00:59;21.20;99.90
6379;DHT22;3222;48.858;10.128;2022-10-17T16:03:25;21.20;99.90
6379;DHT22;3222;48.858;10.128;2022-10-17T16:05:52;21.10;99.90
6379;DHT22;3222;48.858;10.128;2022-10-17T16:08:18;21.10;99.90
6379;DHT22;3222;48.858;10.128;2022-10-17T16:10:43;21.00;99.90
6379;DHT22;3222;48.858;10.128;2022-10-17T16:13:17;20.90;99.90
6379;DHT22;3222;48.858;10.128;2022-10-17T16:15:43;20.90;99.90
6379;DHT22;3222;48.858;10.128;2022-10-17T16:18:09;20.80;99.90
6379;DHT22;3222;48.858;10.128;2022-10-17T16:20:34;20.80;99.90
6379;DHT22;3222;48.858;10.128;2022-10-17T16:23:00;20.70;99.90
6379;DHT22;3222;48.858;10.128;2022-10-17T16:25:29;20.60;99.90
6379;DHT22;3222;48.858;10.128;2022-10-17T16:27:57;20.70;99.90
6379;DHT22;3222;48.858;10.128;2022-10-17T16:30:25;20.60;99.90
6379;DHT22;3222;48.858;10.128;2022-10-17T16:32:51;20.60;99.90
6379;DHT22;3222;48.858;10.128;2022-10-17T16:35:26;20.50;99.90
6379;DHT22;3222;48.858;10.128;2022-10-17T16:37:52;20.40;99.90
6379;DHT22;3222;48.858;10.128;2022-10-17T16:40:18;20.30;99.90
6379;DHT22;3222;48.858;10.128;2022-10-17T16:42:44;20.30;99.90
6379;DHT22;3222;48.858;10.128;2022-10-17T16:45:16;20.20;99.90
6379;DHT22;3222;48.858;10.128;2022-10-17T16:47:42;20.10;99.90
6379;DHT22;3222;48.858;10.128;2022-10-17T16:50:09;20.10;99.90
6379;DHT22;3222;48.858;10.128;2022-10-17T16:52:34;20.00;99.90
6379;DHT22;3222;48.858;10.128;2022-10-17T16:55:00;20.00;99.90
6379;DHT22;3222;48.858;10.128;2022-10-17T16:57:26;19.90;99.90
6379;DHT22;3222;48.858;10.128;2022-10-17T16:59:52;19.90;99.90
6379;DHT22;3222;48.858;10.128;2022-10-17T17:02:17;19.80;99.90
6379;DHT22;3222;48.858;10.128;2022-10-17T17:04:43;19.80;99.90
6379;DHT22;3222;48.858;10.128;2022-10-17T17:07:09;19.70;99.90
6379;DHT22;3222;48.858;10.128;2022-10-17T17:09:34;19.70;99.90
6379;DHT22;3222;48.858;10.128;2022-10-17T17:12:00;19.60;99.90
6379;DHT22;3222;48.858;10.128;2022-10-17T17:14:26;19.60;99.90
6379;DHT22;3222;48.858;10.128;2022-10-17T17:16:51;19.50;99.90
6379;DHT22;3222;48.858;10.128;2022-10-17T17:19:17;19.50;99.90
6379;DHT22;3222;48.858;10.128;2022-10-17T17:21:43;19.40;99.90
6379;DHT22;3222;48.858;10.128;2022-10-17T17:24:19;19.30;99.90
6379;DHT22;3222;48.858;10.128;2022-10-17T17:26:50;19.30;99.90
6379;DHT22;3222;48.858;10.128;2022-10-17T17:29:16;19.20;99.90
6379;DHT22;3222;48.858;10.128;2022-10-17T17:31:42;19.20;99.90
6379;DHT22;3222;48.858;10.128;2022-10-17T17:34:07;19.20;99.90
6379;DHT22;3222;48.858;10.128;2022-10-17T17:36:34;19.20;99.90
6379;DHT22;3222;48.858;10.128;2022-10-17T17:39:03;19.10;99.90
6379;DHT22;3222;48.858;10.128;2022-10-17T17:41:29;19.00;99.90
6379;DHT22;3222;48.858;10.128;2022-10-17T17:43:55;19.00;99.90
6379;DHT22;3222;48.858;10.128;2022-10-17T17:46:21;19.00;99.90
6379;DHT22;3222;48.858;10.128;2022-10-17T17:48:50;18.90;99.90
6379;DHT22;3222;48.858;10.128;2022-10-17T17:51:19;18.80;99.90
6379;DHT22;3222;48.858;10.128;2022-10-17T17:53:46;18.90;99.90
6379;DHT22;3222;48.858;10.128;2022-10-17T17:56:15;18.80;99.90
6379;DHT22;3222;48.858;10.128;2022-10-17T17:58:43;18.80;99.90
6379;DHT22;3222;48.858;10.128;2022-10-17T18:01:13;18.70;99.90
6379;DHT22;3222;48.858;10.128;2022-10-17T18:03:42;18.70;99.90